HOURLY OBS INDEX

084

East Gippsland

COMBIENBAR AWS

Site: 084143
Alt: 640.0m
64km NE of ORBOST


  Time     Wind        Temp  DP   Baro     Rain since   Rain past  Vis(m), Cloud(base in m), Weather
  local        km/h                         9am  last   hr   10m    
Fri 12:00  NNE  4/  9  27.8 19.6  1013.8    0.8   0.0   0.0   0.0   ----- 
Fri 12:30  NNW  2/  7  29.3 20.5  1013.3    0.8   0.0   0.0   0.0   ----- 
Fri 13:00    N  2/  4  29.8 19.8  1013.0    0.8   0.0   0.0   0.0   ----- 
Fri 13:30  NNE  2/  6  30.4 20.3  1012.4    0.8   0.0   0.0   0.0   ----- 
Fri 14:00    C  0/  0  29.0 18.4  1012.3    0.8   0.0   0.0   0.0   ----- 
Fri 14:30    N  2/  6  28.1 18.2  1011.6    0.8   0.0   0.0   0.0   ----- 
Fri 15:00   NE  4/  7  28.5 19.4  1011.3    0.8   0.0   0.0   0.0   ----- 
Fri 15:30   SW  2/  6  25.3 20.5  1012.4    1.0   0.2   0.2   0.2   ----- 
Fri 16:00   SW  2/  9  24.1 20.8  1012.9    1.2   0.2   0.4   0.0   ----- 
Fri 16:30    C  0/  0  24.6 21.7  1012.6    1.4   0.2   0.4   0.0   ----- 
Fri 17:00    C  0/  0  24.4 21.7  1012.2    1.4   0.0   0.2   0.0   ----- 

GABO ISLAND LIGHTHOUSE

Site: 084016
Alt: 15.2m
14km E of MALLACOOTA


  Time     Wind        Temp  DP   Baro     Rain since   Rain past  Vis(m), Cloud(base in m), Weather
  local        km/h                         9am  last   hr   10m    
Fri 12:00  NNW  9/ 13  27.4 18.1  1010.4    0.0   0.0   0.0   0.0   ----- 
Fri 12:30   NE  9/ 11  26.9 19.3  1009.9    0.0   0.0   0.0   0.0   ----- 
Fri 13:00   NE 13/ 17  24.3 18.6  1009.8    0.0   0.0   0.0   0.0   ----- 
Fri 13:30   NE 20/ 24  23.6 18.4  1009.1    0.0   0.0   0.0   0.0   ----- 
Fri 14:00   NE 30/ 33  24.1 18.4  1008.7    0.0   0.0   0.0   0.0   ----- 
Fri 14:30   NE 30/ 33  23.5 18.3  1008.6    0.0   0.0   0.0   0.0   ----- 
Fri 15:00   NE 33/ 37  23.7 18.1  1008.2    0.0   0.0   0.0   0.0   ----- 
Fri 15:30   NE 35/ 39  23.7 19.0  1007.9    0.0   0.0   0.0   0.0   ----- 
Fri 16:00  NNE 32/ 35  24.8 18.7  1007.7    0.0   0.0   0.0   0.0   ----- 
Fri 16:30    N 20/ 26  25.5 18.1  1008.7    0.0   0.0   0.0   0.0   ----- 
Fri 17:00   NE 15/ 20  22.5 19.5  1009.0    0.0   0.0   0.0   0.0   ----- 

GELANTIPY

Site: 084142
Alt: 755.0m
56km NNW of ORBOST


  Time     Wind        Temp  DP   Baro     Rain since   Rain past  Vis(m), Cloud(base in m), Weather
  local        km/h                         9am  last   hr   10m    
Fri 12:00  NNE 20/ 26  25.0 18.9  1013.5    0.2   0.0   0.0   0.0   ----- 
Fri 12:30  NNE 20/ 24  25.7 17.9  1012.9    0.2   0.0   0.0   0.0   ----- 
Fri 13:00  NNE 20/ 26  25.3 17.2  1012.3    0.2   0.0   0.0   0.0   ----- 
Fri 13:30   NE 20/ 28  26.0 16.8  1011.5    0.2   0.0   0.0   0.0   ----- 
Fri 14:00  NNE 28/ 39  27.7 16.9  1010.7    0.4   0.2   0.2   0.0   ----- 
Fri 14:30    N 26/ 33  27.8 16.4  1010.9    0.4   0.0   0.2   0.0   ----- 
Fri 15:00  SSE  4/  7  27.4 17.6  1012.2    0.4   0.0   0.0   0.0   ----- 
Fri 15:30  SSE  9/ 17  25.4 17.6  1012.8    0.4   0.0   0.0   0.0   ----- 
Fri 16:00    S  9/ 17  24.7 18.6  1012.6    0.4   0.0   0.0   0.0   ----- 
Fri 16:30  SSW 11/ 17  24.2 19.9  1012.8    0.4   0.0   0.0   0.0   ----- 
Fri 17:00    S 13/ 24  25.2 17.1  1012.0    0.4   0.0   0.0   0.0   ----- 

MALLACOOTA

Site: 084084
Alt: 22.0m
5km SSW of MALLACOOTA


  Time     Wind        Temp  DP   Baro     Rain since   Rain past  Vis(m), Cloud(base in m), Weather
  local        km/h                         9am  last   hr   10m    
Fri 12:00  NNE  9/ 15  25.2 20.2  1010.4    0.4   0.0   0.2   0.0   ----- 
Fri 12:30  ENE  7/ 11  26.4 19.8  1009.7    0.4   0.0   0.0   0.0   ----- 
Fri 13:00   NE  6/  9  27.3 20.1  1009.5    0.4   0.0   0.0   0.0   ----- 
Fri 13:30   NE 11/ 15  27.4 19.5  1008.9    0.4   0.0   0.0   0.0   ----- 
Fri 14:00   NE 13/ 22  27.1 17.8  1008.5    0.4   0.0   0.0   0.0   ----- 
Fri 14:30    E 13/ 20  24.2 17.7  1008.4    0.4   0.0   0.0   0.0   ----- 
Fri 15:00   NE 13/ 20  24.2 17.7  1007.6    0.4   0.0   0.0   0.0   ----- 
Fri 15:30  NNE 15/ 26  25.7 17.6  1007.6    0.4   0.0   0.0   0.0   ----- 
Fri 16:00  NNE  2/  9  27.0 18.6  1008.2    0.4   0.0   0.0   0.0   ----- 
Fri 16:30  NNE  2/  6  27.1 19.4  1008.7    0.4   0.0   0.0   0.0   ----- 
Fri 17:00    S  7/  9  25.1 18.8  1008.6    0.4   0.0   0.0   0.0   ----- 

MOUNT NOWA NOWA

Site: 084144
Alt: 350.0m
32km W of ORBOST


  Time     Wind        Temp  DP   Baro     Rain since   Rain past  Vis(m), Cloud(base in m), Weather
  local        km/h                         9am  last   hr   10m    
Fri 12:00   NE  7/ 13  23.6 17.8  ------    0.2   0.0   0.2   0.0   ----- 
Fri 12:30  ENE  7/ 13  23.9 17.6  ------    0.2   0.0   0.0   0.0   ----- 
Fri 13:00  ENE  9/ 13  24.9 17.1  ------    0.4   0.2   0.2   0.0   ----- 
Fri 13:30  ENE  7/ 11  25.2 18.2  ------    0.4   0.0   0.2   0.0   ----- 
Fri 14:00  WSW  6/  9  25.7 19.1  ------    0.4   0.0   0.0   0.0   ----- 
Fri 14:30    C  0/  4  26.6 17.4  ------    0.4   0.0   0.0   0.0   ----- 
Fri 15:00  WNW  6/ 11  26.9 16.8  ------    0.4   0.0   0.0   0.0   ----- 
Fri 15:30  WNW  4/  6  26.8 18.6  ------    0.4   0.0   0.0   0.0   ----- 
Fri 16:00  SSW  9/ 19  26.7 18.3  ------    0.4   0.0   0.0   0.0   ----- 
Fri 16:30    S 11/ 26  25.8 18.0  ------    0.6   0.2   0.2   0.0   ----- 
Fri 17:00   SE  4/  7  26.6 18.2  ------    0.6   0.0   0.2   0.0   ----- 

ORBOST

Site: 084145
Alt: 62.7m
1km NNE of ORBOST


  Time     Wind        Temp  DP   Baro     Rain since   Rain past  Vis(m), Cloud(base in m), Weather
  local        km/h                         9am  last   hr   10m    
Fri 12:00    W  4/  7  25.9 19.1  1009.3    1.2   0.2   0.2   0.0   ----- 
Fri 12:30    N  9/ 15  28.1 18.8  1008.2    1.2   0.0   0.2   0.0   ----- 
Fri 13:00    N  7/ 13  28.1 19.3  1008.0    1.2   0.0   0.0   0.0   ----- 
Fri 13:30  ENE  4/ 11  27.2 20.0  1006.9    1.2   0.0   0.0   0.0   ----- 
Fri 14:00   NE  9/ 19  26.4 20.5  1007.1    1.2   0.0   0.0   0.0   ----- 
Fri 14:30    C  0/  0  27.4 21.2  1007.4    1.2   0.0   0.0   0.0   ----- 
Fri 15:00    W  7/ 11  27.6 21.4  1008.5    1.2   0.0   0.0   0.0   ----- 
Fri 15:30   NW  4/  7  26.5 21.3  1008.9    1.4   0.2   0.2   0.0   ----- 
Fri 16:00    C  0/  2  26.6 22.7  1009.3    1.4   0.0   0.2   0.0   ----- 
Fri 16:30    S  7/ 17  27.8 21.8  1009.7    1.4   0.0   0.0   0.0   ----- 
Fri 17:00   SE  9/ 17  25.6 19.0  1009.1    1.4   0.0   0.0   0.0   -----